Weather observations for the past three days for
Denison
Imperial (Metric)
Date Time (cdt) Wind (mph) Vis. (mi.) Weather Sky Cond. Temperature (ºF) Relative Humidity Wind Chill (°F) Heat Index (°F) Pressure Precipitation (in)
Air Dwpt 6 hour altimeter (in) sea level (mb) 1 hr 3 hr 6 hr
Max. Min.
03 16:15 N 10 G 18 10.00 Fair CLR 71.6 35.6 27% 29.81 0.0
03 15:55 NW 17 10.00 Fair CLR 71.6 35.6 27% 29.81 0.0
03 15:35 NW 15 10.00 Fair CLR 71.6 35.6 27% 29.82 0.0
03 15:15 N 9 G 20 10.00 Fair CLR 73.4 35.6 25% 29.82 0.0
03 14:55 NW 13 G 23 4.00 Fair with Haze CLR 73.4 35.6 25% 29.83 0.0
03 14:35 NW 14 G 22 4.00 Fair with Haze CLR 71.6 33.8 25% 29.83 0.0
03 14:15 NW 20 G 26 5.00 Fair with Haze CLR 71.6 33.8 25% 29.83 0.0
03 13:55 NW 17 G 25 5.00 Fair with Haze CLR 71.6 33.8 25% 29.84 0.0
03 13:35 NW 14 G 22 6.00 Fair with Haze CLR 71.6 33.8 25% 29.84 0.0
03 13:15 NW 16 G 23 5.00 Fair with Haze CLR 71.6 35.6 27% 29.85 0.0
03 12:55 N 10 G 21 5.00 Fair with Haze CLR 69.8 37.4 31% 29.85 0.0
03 12:35 NW 14 G 22 6.00 Fair with Haze CLR 68 35.6 30% 29.86 0.0
03 12:15 NW 17 6.00 Fair with Haze CLR 66.2 33.8 30% 29.86 0.0
03 11:55 NW 12 G 24 5.00 Fair with Haze CLR 66.2 35.6 32% 29.86 0.0
03 11:35 N 13 G 21 5.00 Fair with Haze CLR 68 37.4 33% 29.86 0.0
03 11:15 N 13 G 21 6.00 Fair with Haze CLR 66.2 37.4 35% 29.86 0.0
03 10:55 N 16 G 22 5.00 Fair with Haze CLR 66.2 37.4 35% 29.84 0.0
03 10:35 N 17 5.00 Fair with Haze CLR 64.4 37.4 37% 29.85 0.0
03 10:15 N 17 G 24 5.00 Fair with Haze CLR 66.2 37.4 35% 29.84 0.0
03 09:55 N 14 G 21 5.00 Fair with Haze CLR 64.4 37.4 37% 29.86 0.0
03 09:35 N 12 4.00 Fair with Haze CLR 64.4 37.4 37% 29.85 0.0
03 09:15 N 6 G 13 5.00 Fair with Haze CLR 62.6 39.2 42% 29.85 0.0
03 08:55 NW 7 5.00 Fair with Haze CLR 60.8 39.2 45% 29.84 0.0
03 08:35 NW 9 6.00 Fair with Haze CLR 59 39.2 48% 29.84 0.0
03 08:15 NW 9 G 16 5.00 Fair with Haze CLR 57.2 39.2 51% 29.84 0.0
03 07:35 SW 6 6.00 Fair with Haze CLR 51.8 37.4 58% 29.83 0.0
03 07:15 SW 7 5.00 Fair with Haze CLR 50 35.6 58% 48 29.81 0.0
03 06:55 SW 7 5.00 Fair with Haze CLR 48.2 33.8 58% 46 29.81 0.0
03 06:35 SW 5 6.00 Fair with Haze CLR 48.2 33.8 58% 47 29.81 0.0
03 06:15 SW 7 7.00 A Few Clouds FEW016 FEW021 50 33.8 54% 48 29.81 0.0
03 05:35 S 10 7.00 A Few Clouds FEW017 48.2 33.8 58% 44 29.81 0.0
03 05:15 S 9 9.00 Fair CLR 46.4 35.6 66% 42 29.81 0.0
03 04:55 S 6 10.00 Fair CLR 44.6 35.6 71% 42 29.83 0.0
03 04:35 W 3 10.00 Fair CLR 46.4 33.8 62% 29.85 0.0
03 04:15 NW 3 10.00 Fair CLR 46.4 33.8 62% 29.86 0.0
03 03:55 Vrbl 3 G 14 10.00 Fair CLR 48.2 33.8 58% 29.84 0.0
03 03:35 S 8 G 14 8.00 Fair CLR 50 32 50% 47 29.83 0.0
03 03:15 S 15 8.00 A Few Clouds FEW120 50 32 50% 45 29.83 0.0
03 02:55 S 13 6.00 A Few Clouds with Haze FEW120 50 32 50% 46 29.83 0.0
03 02:35 S 14 7.00 A Few Clouds FEW120 50 32 50% 45 29.83 0.0
03 02:15 S 13 7.00 Fair CLR 50 32 50% 46 29.85 0.0
03 01:55 S 13 7.00 Partly Cloudy FEW100 SCT120 51.8 32 47% 29.86 0.0
03 01:35 S 12 7.00 Mostly Cloudy BKN110 51.8 32 47% 29.87 0.0
03 01:15 S 10 G 16 7.00 Fair CLR 51.8 32 47% 29.87 0.0
03 00:55 S 13 7.00 Fair CLR 51.8 32 47% 29.87 0.0
03 00:35 S 15 G 21 8.00 Fair CLR 53.6 32 44% 29.88 0.0
03 00:15 S 15 G 25 7.00 A Few Clouds FEW110 53.6 32 44% 29.88 0.0
02 23:55 S 15 7.00 Fair CLR 53.6 30.2 41% 29.89 0.0
02 23:15 S 16 G 25 7.00 Fair CLR 55.4 30.2 38% 29.89 0.0
02 22:55 S 15 G 21 7.00 Fair CLR 55.4 30.2 38% 29.9 0.0
02 22:35 S 12 7.00 Fair CLR 55.4 32 41% 29.91 0.0
02 22:15 S 14 8.00 Fair CLR 55.4 30.2 38% 29.92 0.0
02 21:55 S 10 G 17 7.00 Fair CLR 55.4 30.2 38% 29.93 0.0
02 21:35 S 12 G 17 7.00 Fair CLR 55.4 30.2 38% 29.93 0.0
02 21:15 S 12 7.00 Fair CLR 57.2 30.2 36% 29.93 0.0
02 20:55 S 10 6.00 Fair with Haze CLR 57.2 30.2 36% 29.93 0.0
02 20:35 S 10 6.00 Fair with Haze CLR 57.2 32 39% 29.94 0.0
02 20:15 S 9 5.00 A Few Clouds with Haze FEW120 59 32 36% 29.95 0.0
02 19:55 S 7 G 14 6.00 Fair with Haze CLR 60.8 32 34% 29.96 0.0
02 19:35 S 9 G 16 6.00 Fair with Haze CLR 62.6 30.2 30% 29.97 0.0
02 19:15 SW 8 G 15 5.00 Fair with Haze CLR 62.6 30.2 30% 29.97 0.0
02 18:55 SW 9 G 16 7.00 Fair CLR 64.4 30.2 28% 29.97 0.0
02 18:35 SW 13 G 18 10.00 Fair CLR 64.4 30.2 28% 29.98 0.0
02 18:15 W 10 G 17 10.00 Fair CLR 64.4 30.2 28% 29.98 0.0
02 17:55 SW 15 9.00 Fair CLR 64.4 30.2 28% 29.99 0.0
02 17:35 Vrbl 6 G 15 10.00 Fair CLR 64.4 30.2 28% 30 0.0
02 17:15 SW 8 10.00 Fair CLR 64.4 30.2 28% 30 0.0
02 16:55 SW 9 G 15 10.00 Fair CLR 64.4 30.2 28% 30.01 0.0
02 16:35 SW 8 9.00 Fair CLR 64.4 30.2 28% 30.02 0.0
02 16:15 Vrbl 7 G 14 9.00 Fair CLR 64.4 30.2 28% 30.03 0.0
02 15:55 Vrbl 5 G 16 10.00 Fair CLR 64.4 30.2 28% 30.04 0.0
02 15:35 SW 10 G 17 10.00 Fair CLR 64.4 30.2 28% 30.05 0.0
02 15:15 W 12 10.00 Fair CLR 62.6 30.2 30% 30.06 0.0
02 14:55 S 9 G 15 5.00 Fair with Haze CLR 62.6 32 32% 30.07 0.0
02 14:35 Vrbl 5 G 13 6.00 Fair with Haze CLR 62.6 28.4 27% 30.08 0.0
02 14:15 Vrbl 5 G 13 5.00 Fair with Haze CLR 60.8 30.2 31% 30.08 0.0
02 13:55 W 8 5.00 Fair with Haze CLR 60.8 30.2 31% 30.1 0.0
02 13:30 W 12 6.00 Fair with Haze CLR 60.8 30.2 31% 30.11 0.0
02 13:15 Vrbl 6 G 14 5.00 Fair with Haze CLR 59 28.4 31% 30.11 0.0
02 12:55 NW 12 G 20 5.00 Fair with Haze CLR 59 28.4 31% 30.12 0.0
02 12:35 W 8 5.00 Fair with Haze CLR 59 28.4 31% 30.13 0.0
02 12:15 W 8 5.00 Fair with Haze CLR 59 30.2 34% 30.13 0.0
02 11:55 W 8 G 16 5.00 Fair with Haze CLR 57.2 26.6 31% 30.14 0.0
02 11:35 W 9 6.00 Fair with Haze CLR 57.2 28.4 33% 30.14 0.0
02 11:15 W 8 5.00 Fair with Haze CLR 57.2 32 39% 30.15 0.0
02 10:55 Vrbl 5 G 12 10.00 Fair CLR 53.6 28.4 38% 30.15 0.0
02 10:35 SW 8 G 15 9.00 Fair CLR 53.6 28.4 38% 30.16 0.0
02 10:15 SW 8 10.00 Fair CLR 53.6 28.4 38% 30.16 0.0
02 09:55 SW 7 10.00 Fair CLR 51.8 30.2 44% 30.16 0.0
02 09:35 Vrbl 5 9.00 Fair CLR 50 30.2 47% 49 30.17 0.0
02 09:15 SW 5 9.00 Fair CLR 46.4 32 57% 45 30.17 0.0
02 08:55 Calm 9.00 Fair CLR 44.6 33.8 66% 30.17 0.0
02 08:35 Calm 9.00 Fair CLR 41 41 100% 30.18 0.0
02 08:15 Calm 5.00 Fog/Mist CLR 37.4 37.4 100% 30.18 0.0
02 07:55 Calm 9.00 Fair CLR 33.8 33.8 100% 30.17 0.0
02 07:35 Calm 9.00 Fair CLR 32 32 100% 30.17 0.0
02 07:15 Calm 9.00 Fair CLR 30.2 30.2 100% 30.17 0.0
02 06:55 Calm 9.00 Fair CLR 28.4 28.4 100% 30.17 0.0
02 06:35 Calm 9.00 Fair CLR 28.4 28.4 100% 30.16 0.0
02 06:15 Calm 10.00 Fair CLR 28.4 28.4 100% 30.16 0.0
02 05:55 Calm 10.00 Fair CLR 28.4 28.4 100% 30.16 0.0
02 05:35 Calm 10.00 Fair CLR 28.4 28.4 100% 30.16 0.0
02 05:15 Calm 10.00 Fair CLR 28.4 28.4 100% 30.16 0.0
02 04:55 Calm 9.00 Fair CLR 28.4 28.4 100% 30.16 0.0
02 04:35 Calm 6.00 Fog/Mist CLR 28.4 28.4 100% 30.16 0.0
02 04:15 Calm 6.00 Fog/Mist CLR 30.2 30.2 100% 30.15 0.0
02 03:55 Calm 6.00 Fog/Mist CLR 30.2 30.2 100% 30.15 0.0
02 03:35 Calm 6.00 Fog/Mist CLR 30.2 30.2 100% 30.15 0.0
02 03:15 Calm 6.00 Fog/Mist CLR 30.2 30.2 100% 30.15 0.0
02 02:55 Calm 6.00 Fog/Mist CLR 30.2 30.2 100% 30.15 0.0
02 01:55 Calm 6.00 Fog/Mist CLR 32 32 100% 30.16 0.0
02 01:35 Calm 6.00 Fog/Mist CLR 32 32 100% 30.16 0.0
02 01:15 Calm 7.00 NULL NULL 32 32 100% 30.16 0.0
02 00:35 Calm 6.00 Fog/Mist CLR 33.8 33.8 100% 30.15 0.0
02 00:15 Calm 7.00 Fair CLR 35.6 33.8 93% 30.15 0.0
01 23:55 E 5 6.00 Fog/Mist CLR 33.8 33.8 100% 30 30.15 0.0
01 23:35 Calm 6.00 Fog/Mist CLR 35.6 35.6 100% 30.14 0.0
01 23:15 Calm 6.00 Fog/Mist CLR 35.6 33.8 93% 30.14 0.0
01 22:55 Calm 7.00 Fair CLR 37.4 33.8 87% 30.14 0.0
01 22:35 Calm 7.00 Fair CLR 37.4 33.8 87% 30.14 0.0
01 22:15 Calm 6.00 Fair with Haze CLR 41 30.2 66% 30.13 0.0
01 21:55 Calm 7.00 Fair CLR 42.8 26.6 53% 30.13 0.0
01 21:35 NE 5 8.00 Fair CLR 44.6 26.6 49% 43 30.12 0.0
01 21:15 N 3 7.00 Fair CLR 46.4 24.8 43% 30.12 0.0
01 20:55 Calm 7.00 Fair CLR 46.4 26.6 46% 30.11 0.0
01 20:35 N 3 6.00 Fair with Haze CLR 46.4 26.6 46% 30.1 0.0
01 20:15 N 7 5.00 Fair with Haze CLR 48.2 26.6 43% 46 30.1 0.0
01 19:55 NW 9 6.00 Fair with Haze CLR 50 24.8 37% 47 30.09 0.0
01 19:35 N 10 5.00 Fair with Haze CLR 51.8 24.8 35% 30.09 0.0
01 19:15 NW 9 6.00 Fair with Haze CLR 51.8 24.8 35% 30.08 0.0
01 18:55 NW 12 5.00 Fair with Haze CLR 51.8 24.8 35% 30.08 0.0
01 18:35 N 12 6.00 Fair with Haze CLR 51.8 24.8 35% 30.08 0.0
01 18:15 NW 12 5.00 Haze NULL 53.6 24.8 33% 30.08 0.0
01 17:55 N 15 0.00 NULL NULL 53.6 26.6 35% 30.08 0.0
01 17:35 NW 9 G 15 5.00 A Few Clouds with Haze FEW070 53.6 24.8 33% 30.07 0.0
01 17:15 N 14 G 23 5.00 A Few Clouds with Haze FEW070 53.6 24.8 33% 30.07 0.0
01 16:55 N 12 G 18 5.00 Partly Cloudy with Haze SCT070 53.6 26.6 35% 30.07 0.0
01 16:35 Vrbl 6 G 14 6.00 Partly Cloudy with Haze SCT070 51.8 24.8 35% 30.08 0.0
01 16:15 N 15 G 21 5.00 Partly Cloudy with Haze SCT070 55.4 26.6 33% 30.08 0.0
01 15:55 NW 16 5.00 Partly Cloudy with Haze SCT065 55.4 26.6 33% 30.08 0.0
01 15:35 N 13 5.00 Partly Cloudy with Haze SCT070 53.6 28.4 38% 30.08 0.0
01 15:15 N 10 G 20 6.00 A Few Clouds with Haze FEW070 55.4 30.2 38% 30.09 0.0
01 14:55 NW 14 6.00 Mostly Cloudy with Haze BKN070 53.6 28.4 38% 30.09 0.0
01 14:35 NW 13 G 21 6.00 A Few Clouds with Haze FEW060 FEW075 53.6 28.4 38% 30.08 0.0
01 14:15 N 12 G 20 5.00 A Few Clouds with Haze FEW065 53.6 28.4 38% 30.08 0.0
01 13:55 N 14 G 21 6.00 A Few Clouds with Haze FEW060 FEW070 55.4 30.2 38% 30.08 0.0
01 13:35 NW 16 5.00 A Few Clouds with Haze FEW055 55.4 32 41% 30.08 0.0
01 13:15 NW 12 G 23 6.00 A Few Clouds with Haze FEW055 FEW070 53.6 30.2 41% 30.08 0.0
01 12:55 N 14 G 22 5.00 A Few Clouds with Haze FEW048 FEW065 53.6 33.8 47% 30.08 0.0
01 12:35 NW 12 G 23 5.00 Partly Cloudy with Haze FEW048 SCT065 53.6 33.8 47% 30.09 0.0
01 12:15 NW 16 5.00 Partly Cloudy with Haze SCT048 51.8 33.8 50% 30.09 0.0
01 11:55 N 14 5.00 A Few Clouds with Haze FEW041 53.6 35.6 51% 30.08 0.0
01 11:35 N 10 G 17 5.00 Partly Cloudy with Haze SCT041 SCT060 53.6 35.6 51% 30.08 0.0
01 11:15 N 12 G 22 5.00 Partly Cloudy with Haze SCT034 SCT041 SCT055 51.8 37.4 58% 30.08 0.0
01 10:55 NW 14 5.00 Mostly Cloudy with Haze SCT034 SCT044 BKN055 51.8 39.2 62% 30.08 0.0
01 10:35 N 12 6.00 Mostly Cloudy with Haze SCT031 BKN044 50 39.2 67% 46 30.08 0.0
01 10:15 N 9 G 17 5.00 Partly Cloudy with Haze SCT031 50 39.2 67% 47 30.08 0.0
01 09:55 NE 13 5.00 Fair with Haze CLR 50 39.2 67% 46 30.07 0.0
01 09:35 NE 12 5.00 Fair with Haze CLR 48.2 39.2 71% 44 30.07 0.0
01 09:15 N 10 5.00 Fair with Haze CLR 46.4 37.4 71% 42 30.07 0.0
01 08:55 N 8 6.00 Fair with Haze CLR 44.6 39.2 81% 41 30.07 0.0
01 08:35 N 6 5.00 Fair with Haze CLR 44.6 37.4 76% 42 30.06 0.0
01 08:15 NW 7 5.00 Fair with Haze CLR 42.8 37.4 81% 39 30.06 0.0
01 07:55 Calm 5.00 Fair with Haze CLR 41 35.6 81% 30.06 0.0
01 07:35 Calm 6.00 Fog/Mist CLR 39.2 37.4 93% 30.06 0.0
01 07:15 Calm 10.00 Fair CLR 37.4 37.4 100% 30.06 0.0
01 06:55 Calm 10.00 Fair CLR 35.6 35.6 100% 30.05 0.0
01 06:35 SW 5 6.00 Fog/Mist FEW060 35.6 35.6 100% 32 30.04 0.0
01 06:15 SW 5 7.00 A Few Clouds FEW060 FEW075 35.6 35.6 100% 32 30.04 0.0
01 05:55 W 3 6.00 Fog/Mist SCT075 BKN080 35.6 35.6 100% 30.04 0.0
01 05:35 W 5 6.00 Fog/Mist BKN080 35.6 35.6 100% 32 30.04 0.0
01 05:15 W 3 6.00 Fog/Mist BKN075 BKN085 35.6 35.6 100% 30.04 0.0
01 04:55 Calm 6.00 Fog/Mist BKN075 BKN085 35.6 35.6 100% 30.04 0.0
01 04:35 Calm 7.00 Overcast BKN080 OVC090 35.6 35.6 100% 30.04 0.0
01 04:15 Calm 10.00 Mostly Cloudy FEW065 BKN080 37.4 37.4 100% 30.05 0.0
01 03:55 Calm 7.00 Fair CLR 37.4 35.6 93% 30.05 0.0
01 03:35 Calm 10.00 Partly Cloudy SCT065 0 0 0% 30.05 0.0
01 03:15 Calm 10.00 Mostly Cloudy BKN070 35.6 35.6 100% 30.05 0.0
01 02:55 SW 3 7.00 Partly Cloudy SCT070 39.2 33.8 81% 30.05 0.0
01 02:35 Calm 7.00 A Few Clouds FEW070 37.4 35.6 93% 30.06 0.0
01 02:15 Calm 7.00 Partly Cloudy SCT070 SCT090 39.2 37.4 93% 30.06 0.0
01 01:55 Calm 7.00 NULL NULL 39.2 39.2 100% 30.07 0.0
01 01:15 Calm 7.00 Overcast FEW049 BKN075 OVC085 37.4 37.4 100% 30.08 0.0
01 00:55 Calm 7.00 Mostly Cloudy FEW043 SCT050 BKN060 39.2 35.6 87% 30.08 0.0
01 00:35 Calm 7.00 Overcast FEW043 SCT050 OVC075 39.2 39.2 100% 30.08 0.0
30 23:55 Calm 7.00 Overcast FEW065 FEW075 OVC085 35.6 35.6 100% 30.07 0.0
30 23:35 Calm 7.00 Overcast FEW065 BKN075 OVC095 35.6 35.6 100% 30.08 0.0
30 23:15 Calm 7.00 Partly Cloudy FEW015 SCT100 35.6 35.6 100% 30.08 0.0
30 22:55 Calm 7.00 Fair CLR 37.4 37.4 100% 30.08 0.0
30 22:35 Calm 7.00 Fair CLR 37.4 37.4 100% 30.08 0.0
30 22:15 Calm 8.00 Fair CLR 39.2 39.2 100% 30.09 0.0
30 21:55 Calm 7.00 A Few Clouds FEW016 39.2 35.6 87% 30.09 0.0
30 21:35 Calm 7.00 Fair CLR 41 35.6 81% 30.09 0.0
30 20:55 Calm 7.00 Partly Cloudy SCT015 SCT020 44.6 30.2 57% 30.08 0.0
30 20:35 NW 6 7.00 Fair CLR 46.4 28.4 50% 44 30.08 0.0
30 20:15 NW 6 5.00 Fair with Haze CLR 48.2 30.2 50% 46 30.07 0.0
30 19:55 NW 7 5.00 Fair with Haze CLR 48.2 30.2 50% 46 30.07 0.0
30 19:35 N 7 5.00 Fair with Haze CLR 50 30.2 47% 48 30.07 0.0
30 19:15 N 9 6.00 Fair with Haze CLR 51.8 30.2 44% 30.07 0.0
30 18:55 NW 14 5.00 A Few Clouds with Haze FEW100 51.8 28.4 41% 30.07 0.0
30 18:35 N 12 6.00 Fair with Haze CLR 51.8 28.4 41% 30.07 0.0
30 18:15 N 15 6.00 Fair with Haze CLR 51.8 28.4 41% 30.07 0.0
30 17:55 N 13 6.00 Fair with Haze CLR 51.8 28.4 41% 30.07 0.0
30 17:35 N 17 6.00 A Few Clouds with Haze FEW065 FEW075 51.8 28.4 41% 30.07 0.0
30 17:15 N 10 G 17 6.00 A Few Clouds with Haze FEW070 53.6 28.4 38% 30.07 0.0
30 16:55 N 10 G 20 6.00 Partly Cloudy with Haze SCT070 53.6 26.6 35% 30.07 0.0
30 16:35 N 14 6.00 A Few Clouds with Haze FEW070 53.6 26.6 35% 30.06 0.0
Date Time (cdt) Wind (mph) Vis. (mi.) Weather Sky Cond. Air Dwpt Max. Min. Relative Humidity Wind Chill (°F) Heat Index (°F) altimeter (in) sea level (mb) 1 hr 3 hr 6 hr
6 hour
Temperature (ºF) Pressure Precipitation (in)